createdAt,value
2023-02-02T00:01:25.438Z,101544.81
2023-02-02T00:03:55.950Z,101554.00
2023-02-02T00:06:24.798Z,101545.66
2023-02-02T00:08:52.701Z,101549.41
2023-02-02T00:11:20.945Z,101560.28
2023-02-02T00:13:48.871Z,101544.81
2023-02-02T00:16:36.517Z,101545.66
2023-02-02T00:19:07.101Z,101554.84
2023-02-02T00:21:35.170Z,101539.81
2023-02-02T00:24:03.375Z,101549.41
2023-02-02T00:26:31.316Z,101542.13
2023-02-02T00:28:59.177Z,101545.84
2023-02-02T00:31:27.106Z,101546.69
2023-02-02T00:33:55.333Z,101533.13
2023-02-02T00:36:24.599Z,101533.53
2023-02-02T00:38:52.918Z,101529.56
2023-02-02T00:41:20.895Z,101535.00
2023-02-02T00:44:09.454Z,101520.59
2023-02-02T00:46:39.265Z,101533.34
2023-02-02T00:49:07.163Z,101536.25
2023-02-02T00:51:36.501Z,101541.50
2023-02-02T00:54:04.874Z,101536.06
2023-02-02T00:56:32.774Z,101533.34
2023-02-02T00:59:00.724Z,101539.59
2023-02-02T01:01:28.804Z,101530.63
2023-02-02T01:03:56.985Z,101535.22
2023-02-02T01:06:24.915Z,101540.66
2023-02-02T01:08:54.181Z,101544.19
2023-02-02T01:11:22.079Z,101540.66
2023-02-02T01:13:50.280Z,101545.22
2023-02-02T01:16:18.229Z,101553.38
2023-02-02T01:18:46.140Z,101555.06
2023-02-02T01:21:14.000Z,101557.78
2023-02-02T01:23:41.937Z,101551.03
2023-02-02T01:26:12.396Z,101563.22
2023-02-02T01:28:40.675Z,101570.50
2023-02-02T01:31:10.010Z,101575.09
2023-02-02T01:33:37.964Z,101568.63
2023-02-02T01:36:07.556Z,101576.78
2023-02-02T01:38:35.838Z,101573.22
2023-02-02T01:41:04.553Z,101570.28
2023-02-02T01:43:53.365Z,101565.25
2023-02-02T01:46:22.014Z,101583.22
2023-02-02T01:48:51.028Z,101583.22
2023-02-02T01:51:19.981Z,101591.38
2023-02-02T01:53:47.872Z,101589.50
2023-02-02T01:56:17.686Z,101591.38
2023-02-02T01:58:45.577Z,101586.78
2023-02-02T02:01:14.945Z,101586.56
2023-02-02T02:03:42.871Z,101590.34
2023-02-02T02:06:12.593Z,101597.44
2023-02-02T02:08:42.464Z,101594.94
2023-02-02T02:11:10.315Z,101585.09
2023-02-02T02:13:53.153Z,101567.63
2023-02-02T02:16:25.686Z,101589.50
2023-02-02T02:18:59.499Z,101588.44
2023-02-02T02:22:04.969Z,101598.28
2023-02-02T02:28:55.960Z,101578.84
2023-02-02T02:31:51.468Z,101579.69
2023-02-02T02:34:20.067Z,101583.22
2023-02-02T02:36:50.633Z,101575.09
2023-02-02T02:39:21.488Z,101572.56
2023-02-02T02:41:51.143Z,101575.09
2023-02-02T02:44:19.276Z,101566.94
2023-02-02T02:46:47.252Z,101571.53
2023-02-02T02:49:16.796Z,101565.91
2023-02-02T02:51:47.027Z,101565.91
2023-02-02T02:54:16.770Z,101567.78
2023-02-02T02:56:55.086Z,101567.78
2023-02-02T02:59:27.350Z,101575.94
2023-02-02T03:01:59.719Z,101573.22
2023-02-02T03:04:30.070Z,101574.88
2023-02-02T03:06:59.683Z,101574.88
2023-02-02T03:09:30.522Z,101575.09
2023-02-02T03:11:58.462Z,101583.00
2023-02-02T03:14:26.555Z,101586.78
2023-02-02T03:16:54.578Z,101577.81
2023-02-02T03:19:22.763Z,101581.38
2023-02-02T03:21:52.072Z,101584.06
2023-02-02T03:24:19.919Z,101574.88
2023-02-02T03:26:47.781Z,101581.38
2023-02-02T03:29:15.661Z,101576.78
2023-02-02T03:31:43.559Z,101565.00
2023-02-02T03:34:11.516Z,101581.38
2023-02-02T03:36:39.404Z,101576.31
2023-02-02T03:39:09.009Z,101579.69
2023-02-02T03:41:36.888Z,101587.63
2023-02-02T03:44:04.794Z,101587.63
2023-02-02T03:46:32.756Z,101583.00
2023-02-02T03:49:00.947Z,101585.72
2023-02-02T03:51:28.932Z,101583.88
2023-02-02T03:53:56.778Z,101580.31
2023-02-02T03:56:26.085Z,101583.88
2023-02-02T03:58:54.271Z,101581.38
2023-02-02T04:01:28.074Z,101587.63
2023-02-02T04:03:56.102Z,101584.91
2023-02-02T04:06:23.997Z,101584.25
2023-02-02T04:08:52.242Z,101587.63
2023-02-02T04:11:20.211Z,101578.66
2023-02-02T04:13:49.485Z,101583.22
2023-02-02T04:16:17.383Z,101585.09
2023-02-02T04:18:45.300Z,101590.53
2023-02-02T04:21:13.142Z,101589.69
2023-02-02T04:23:41.030Z,101588.00
2023-02-02T04:26:08.932Z,101597.84
2023-02-02T04:28:37.153Z,101600.56
2023-02-02T04:31:06.555Z,101588.84
2023-02-02T04:33:35.073Z,101595.13
2023-02-02T04:36:02.953Z,101606.81
2023-02-02T04:38:31.115Z,101607.84
2023-02-02T04:40:59.088Z,101607.66
2023-02-02T04:43:27.026Z,101580.94
2023-02-02T04:45:58.093Z,101608.50
2023-02-02T04:48:27.542Z,101511.34
2023-02-02T04:51:00.101Z,101616.66
2023-02-02T04:53:28.071Z,101565.66
2023-02-02T04:55:56.129Z,101618.31
2023-02-02T04:58:24.256Z,101538.94
2023-02-02T05:00:52.536Z,101575.66
2023-02-02T05:03:20.485Z,101618.13
2023-02-02T05:05:49.754Z,101599.63
2023-02-02T05:08:17.685Z,101616.44
2023-02-02T05:10:45.894Z,101619.16
2023-02-02T05:13:13.871Z,101593.50
2023-02-02T05:15:41.808Z,101630.84
2023-02-02T05:18:09.683Z,101614.88
2023-02-02T05:20:37.853Z,101609.19
2023-02-02T05:23:07.194Z,101632.72
2023-02-02T05:25:35.089Z,101627.13
2023-02-02T05:28:03.035Z,101603.00
2023-02-02T05:30:33.626Z,101609.78
2023-02-02T05:33:01.713Z,101612.50
2023-02-02T05:35:29.580Z,101613.34
2023-02-02T05:37:59.276Z,101606.91
2023-02-02T05:40:29.978Z,101614.19
2023-02-02T05:42:57.957Z,101611.47
2023-02-02T05:45:26.183Z,101606.06
2023-02-02T05:47:54.913Z,101589.88
2023-02-02T05:50:23.126Z,101601.25
2023-02-02T05:52:51.353Z,101530.91
2023-02-02T05:55:20.138Z,101597.91
2023-02-02T05:57:49.424Z,101598.94
2023-02-02T06:00:18.420Z,101606.91
2023-02-02T06:02:46.358Z,101608.56
2023-02-02T06:05:14.281Z,101626.53
2023-02-02T06:07:42.233Z,101627.56
2023-02-02T06:10:11.106Z,101629.44
2023-02-02T06:12:39.019Z,101612.16
2023-02-02T06:15:11.740Z,101638.41
2023-02-02T06:17:39.723Z,101634.69
2023-02-02T06:20:08.623Z,101642.63
2023-02-02T06:22:37.952Z,101638.41
2023-02-02T06:25:07.926Z,101633.81
2023-02-02T06:27:35.823Z,101626.84
2023-02-02T06:30:04.768Z,101644.69
2023-02-02T06:32:34.182Z,101659.09
2023-02-02T06:35:02.132Z,101620.22
2023-02-02T06:37:30.827Z,101659.94
2023-02-02T06:39:59.227Z,101655.56
2023-02-02T06:42:27.159Z,101651.16
2023-02-02T06:44:55.027Z,101642.81
2023-02-02T06:47:22.975Z,101620.06
2023-02-02T06:49:52.987Z,101649.09
2023-02-02T06:52:20.869Z,101649.09
2023-02-02T06:54:48.785Z,101657.06
2023-02-02T06:57:16.706Z,101576.72
2023-02-02T06:59:44.599Z,101658.91
2023-02-02T07:02:13.192Z,101660.63
2023-02-02T07:04:41.093Z,101667.06
2023-02-02T07:07:10.392Z,101673.34
2023-02-02T07:09:38.632Z,101667.06
2023-02-02T07:12:07.017Z,101663.66
2023-02-02T07:14:34.935Z,101673.34
2023-02-02T07:17:02.909Z,101675.22
2023-02-02T07:19:31.104Z,101676.06
2023-02-02T07:21:58.971Z,101674.19
2023-02-02T07:24:28.890Z,101684.19
2023-02-02T07:26:58.061Z,101686.91
2023-02-02T07:29:26.332Z,101676.91
2023-02-02T07:31:54.543Z,101681.50
2023-02-02T07:34:22.563Z,101689.63
2023-02-02T07:36:50.411Z,101694.22
2023-02-02T07:39:18.701Z,101688.78
2023-02-02T07:41:47.932Z,101690.66
2023-02-02T07:44:16.577Z,101678.03
2023-02-02T07:46:44.755Z,101696.94
2023-02-02T07:49:14.360Z,101693.38
2023-02-02T07:51:47.234Z,101696.09
2023-02-02T07:54:15.622Z,101690.66
2023-02-02T07:56:43.665Z,101687.94
2023-02-02T07:59:13.303Z,101700.69
2023-02-02T08:01:41.276Z,101619.91
2023-02-02T08:04:09.199Z,101702.38
2023-02-02T08:06:38.052Z,101701.53
2023-02-02T08:09:07.837Z,101696.94
2023-02-02T08:11:35.832Z,101677.59
2023-02-02T08:14:04.070Z,101701.53
2023-02-02T08:16:34.063Z,101691.50
2023-02-02T08:19:02.331Z,101701.53
2023-02-02T08:21:30.212Z,101709.66
2023-02-02T08:23:58.384Z,101703.22
2023-02-02T08:26:27.561Z,101702.28
2023-02-02T08:28:59.206Z,101670.94
2023-02-02T08:31:28.347Z,101673.13
2023-02-02T08:33:58.587Z,101701.53
2023-02-02T08:36:27.417Z,101712.38
2023-02-02T08:38:55.758Z,101713.22
2023-02-02T08:41:24.454Z,101717.81
2023-02-02T08:43:52.418Z,101716.97
2023-02-02T08:46:21.393Z,101724.25
2023-02-02T08:48:49.659Z,101703.69
2023-02-02T08:51:20.089Z,101677.34
2023-02-02T08:53:48.011Z,101727.81
2023-02-02T08:56:16.750Z,101735.97
2023-02-02T08:58:45.878Z,101669.03
2023-02-02T09:01:15.763Z,101732.41
2023-02-02T09:03:44.177Z,101726.97
2023-02-02T09:06:13.052Z,101737.84
2023-02-02T09:08:42.427Z,101634.03
2023-02-02T09:11:11.546Z,101748.69
2023-02-02T09:13:39.790Z,101745.97
2023-02-02T09:16:09.682Z,101698.22
2023-02-02T09:18:37.608Z,101746.56
2023-02-02T09:21:07.309Z,101695.78
2023-02-02T09:23:36.811Z,101754.97
2023-02-02T09:26:12.703Z,101767.72
2023-02-02T09:28:40.858Z,101768.09
2023-02-02T09:31:08.953Z,101781.28
2023-02-02T09:33:36.938Z,101775.84
2023-02-02T09:36:06.384Z,101784.84
2023-02-02T09:38:34.396Z,101782.31
2023-02-02T09:41:02.710Z,101794.00
2023-02-02T09:43:44.704Z,101795.88
2023-02-02T09:46:15.553Z,101769.50
2023-02-02T09:48:47.020Z,101803.84
2023-02-02T09:51:18.501Z,101811.16
2023-02-02T09:53:55.240Z,101806.84
2023-02-02T09:56:25.832Z,101807.59
2023-02-02T09:58:55.843Z,101776.44
2023-02-02T10:01:25.951Z,101813.31
2023-02-02T10:03:59.329Z,101830.16
2023-02-02T10:06:32.061Z,101715.78
2023-02-02T10:09:03.168Z,101832.03
2023-02-02T10:11:33.920Z,101832.88
2023-02-02T10:14:05.829Z,101706.41
2023-02-02T10:16:33.756Z,101846.63
2023-02-02T10:19:03.713Z,101852.72
2023-02-02T10:21:36.527Z,101850.84
2023-02-02T10:24:04.623Z,101857.31
2023-02-02T10:26:38.071Z,101839.44
2023-02-02T10:29:15.339Z,101863.56
2023-02-02T10:31:45.208Z,101863.56
2023-02-02T10:34:18.059Z,101812.38
2023-02-02T10:36:52.123Z,101869.84
2023-02-02T10:39:24.655Z,101878.00
2023-02-02T10:41:57.686Z,101863.97
2023-02-02T10:44:33.324Z,101881.56
2023-02-02T10:47:02.041Z,101864.13
2023-02-02T10:49:32.176Z,101872.13
2023-02-02T10:52:03.202Z,101870.25
2023-02-02T10:54:58.461Z,101874.81
2023-02-02T10:57:47.128Z,101856.06
2023-02-02T11:00:23.187Z,101845.50
2023-02-02T11:02:51.408Z,101868.06
2023-02-02T11:05:39.086Z,101856.63
2023-02-02T11:08:15.218Z,101878.91
2023-02-02T11:10:43.886Z,101881.63
2023-02-02T11:13:13.941Z,101889.78
2023-02-02T11:15:43.293Z,101893.34
2023-02-02T11:18:15.884Z,101891.47
2023-02-02T11:20:46.551Z,101884.56
2023-02-02T11:23:18.647Z,101884.00
2023-02-02T11:25:46.603Z,101887.72
2023-02-02T11:28:18.886Z,101892.13
2023-02-02T11:30:50.590Z,101841.56
2023-02-02T11:33:22.946Z,101894.00
2023-02-02T11:35:55.520Z,101892.97
2023-02-02T11:38:23.668Z,101888.56
2023-02-02T11:40:55.527Z,101871.72
2023-02-02T11:43:27.216Z,101850.06
2023-02-02T11:45:59.290Z,101874.25
2023-02-02T11:48:31.220Z,101861.50
2023-02-02T11:51:00.113Z,101806.75
2023-02-02T11:53:29.886Z,101871.81
2023-02-02T11:55:58.793Z,101832.88
2023-02-02T11:58:28.561Z,101821.53
2023-02-02T12:01:00.330Z,101871.91
2023-02-02T12:03:33.371Z,101873.59
2023-02-02T12:06:03.081Z,101870.03
2023-02-02T12:08:31.213Z,101858.03
2023-02-02T12:11:00.581Z,101872.56
2023-02-02T12:13:47.385Z,101807.16
2023-02-02T12:16:26.173Z,101864.41
2023-02-02T12:19:02.078Z,101865.28
2023-02-02T12:21:36.281Z,101879.47
2023-02-02T12:24:14.997Z,101873.22
2023-02-02T12:26:44.143Z,101866.28
2023-02-02T12:29:32.637Z,101827.91
2023-02-02T12:32:07.791Z,101867.97
2023-02-02T12:34:41.483Z,101863.88
2023-02-02T12:37:13.983Z,101876.13
2023-02-02T12:39:48.099Z,101870.88
2023-02-02T12:42:25.952Z,101811.91
2023-02-02T12:45:07.892Z,101876.13
2023-02-02T12:47:39.427Z,101870.69
2023-02-02T12:50:18.714Z,101878.00
2023-02-02T12:52:54.562Z,101879.88
2023-02-02T12:55:24.891Z,101861.25
2023-02-02T12:57:57.803Z,101871.72
2023-02-02T13:00:48.016Z,101863.56
2023-02-02T13:03:24.855Z,101864.41
2023-02-02T13:06:00.351Z,101828.84
2023-02-02T13:08:29.516Z,101846.56
2023-02-02T13:11:01.140Z,101859.84
2023-02-02T13:13:31.400Z,101874.44
2023-02-02T13:16:01.335Z,101876.31
2023-02-02T13:18:31.625Z,101820.59
2023-02-02T13:21:01.782Z,101875.66
2023-02-02T13:23:32.059Z,101872.97
2023-02-02T13:26:02.813Z,101879.88
2023-02-02T13:28:36.133Z,101878.84
2023-02-02T13:31:06.529Z,101867.03
2023-02-02T13:33:36.761Z,101880.31
2023-02-02T13:36:07.413Z,101873.88
2023-02-02T13:38:39.268Z,101882.69
2023-02-02T13:41:12.536Z,101879.78
2023-02-02T13:43:46.413Z,101828.38
2023-02-02T13:46:20.959Z,101660.19
2023-02-02T13:48:57.169Z,101876.88
2023-02-02T13:51:56.784Z,101859.66
2023-02-02T13:55:00.463Z,101885.50
2023-02-02T13:57:53.315Z,101889.88
2023-02-02T14:00:21.859Z,101891.56
2023-02-02T14:02:51.369Z,101876.97
2023-02-02T14:05:26.424Z,101890.28
2023-02-02T14:08:03.581Z,101748.88
2023-02-02T14:10:33.562Z,101868.91
2023-02-02T14:13:35.195Z,101752.41
2023-02-02T14:16:05.515Z,101885.22
2023-02-02T14:18:58.956Z,101887.56
2023-02-02T14:22:05.110Z,101888.56
2023-02-02T14:24:41.656Z,101884.16
2023-02-02T14:27:54.436Z,101887.94
2023-02-02T14:30:33.758Z,101884.38
2023-02-02T14:33:42.076Z,101890.00
2023-02-02T14:36:14.114Z,101804.97
2023-02-02T14:39:04.342Z,101820.97
2023-02-02T14:42:20.422Z,101893.91
2023-02-02T14:45:22.460Z,101889.53
2023-02-02T14:47:51.695Z,101859.06
2023-02-02T14:50:24.209Z,101900.56
2023-02-02T14:52:59.948Z,101904.13
2023-02-02T14:55:29.226Z,101904.31
2023-02-02T14:57:57.841Z,101905.16
2023-02-02T15:00:27.814Z,101828.25
2023-02-02T15:02:55.754Z,101898.75
2023-02-02T15:05:43.971Z,101883.03
2023-02-02T15:08:30.138Z,101906.44
2023-02-02T15:11:29.390Z,101883.22
2023-02-02T15:14:07.133Z,101910.03
2023-02-02T15:16:37.671Z,101917.31
2023-02-02T15:19:14.688Z,101925.47
2023-02-02T15:21:42.764Z,101934.47
2023-02-02T15:24:23.569Z,101930.25
2023-02-02T15:26:54.420Z,101930.91
2023-02-02T15:29:28.567Z,101902.44
2023-02-02T15:31:56.511Z,101931.75
2023-02-02T15:34:26.095Z,101930.91
2023-02-02T15:36:55.075Z,101924.44
2023-02-02T15:39:28.588Z,101917.59
2023-02-02T15:42:12.395Z,101945.31
2023-02-02T15:44:40.294Z,101946.16
2023-02-02T15:47:08.529Z,101937.16
2023-02-02T15:49:36.779Z,101940.44
2023-02-02T15:52:11.527Z,101861.19
2023-02-02T15:54:39.411Z,101925.84
2023-02-02T15:59:59.734Z,101952.44
2023-02-02T16:02:35.259Z,101959.34
2023-02-02T16:05:03.195Z,101958.34
2023-02-02T16:07:33.754Z,101965.63
2023-02-02T16:10:05.674Z,101971.91
2023-02-02T16:12:33.542Z,101978.56
2023-02-02T16:15:03.511Z,101979.59
2023-02-02T16:17:32.342Z,101990.63
2023-02-02T16:20:03.014Z,101984.34
2023-02-02T16:22:31.207Z,101998.94
2023-02-02T16:25:00.464Z,101995.41
2023-02-02T16:27:28.388Z,102000.00
2023-02-02T16:29:57.156Z,102004.38
2023-02-02T16:32:30.465Z,102006.28
2023-02-02T16:34:58.848Z,102014.59
2023-02-02T16:37:28.070Z,102016.47
2023-02-02T16:39:56.400Z,102012.91
2023-02-02T16:42:26.337Z,102015.63
2023-02-02T16:44:54.715Z,102012.91
2023-02-02T16:47:38.908Z,102015.63
2023-02-02T16:50:28.414Z,102015.81
2023-02-02T16:52:58.073Z,102026.66
2023-02-02T16:55:31.551Z,102023.31
2023-02-02T16:58:07.828Z,102023.94
2023-02-02T17:00:37.100Z,102025.00
2023-02-02T17:03:07.714Z,102029.19
2023-02-02T17:05:49.043Z,102029.38
2023-02-02T17:08:17.132Z,102026.47
2023-02-02T17:10:45.228Z,102027.34
2023-02-02T17:13:39.154Z,102035.47
2023-02-02T17:16:07.343Z,102031.91
2023-02-02T17:18:36.629Z,102030.03
2023-02-02T17:21:07.603Z,102033.78
2023-02-02T17:23:36.900Z,102030.22
2023-02-02T17:26:05.181Z,102024.78
2023-02-02T17:28:33.093Z,102030.22
2023-02-02T17:31:02.126Z,102026.31
2023-02-02T17:33:32.010Z,102030.72
2023-02-02T17:36:03.730Z,102026.78
2023-02-02T17:38:32.408Z,102041.66
2023-02-02T17:41:01.743Z,102040.09
2023-02-02T17:43:30.092Z,102025.59
2023-02-02T17:45:58.230Z,102049.91
2023-02-02T17:48:26.297Z,102040.41
2023-02-02T17:50:54.268Z,102024.47
2023-02-02T17:53:23.915Z,102043.16
2023-02-02T17:55:53.417Z,102045.50
2023-02-02T17:58:21.353Z,102052.25
2023-02-02T18:00:53.142Z,102035.22
2023-02-02T18:03:22.708Z,102051.91
2023-02-02T18:05:51.166Z,102056.13
2023-02-02T18:08:19.081Z,102063.25
2023-02-02T18:10:48.677Z,102057.97
2023-02-02T18:13:19.063Z,102058.53
2023-02-02T18:15:47.341Z,102066.69
2023-02-02T18:18:15.585Z,102062.50
2023-02-02T18:20:43.621Z,102048.13
2023-02-02T18:23:11.625Z,102064.72
2023-02-02T18:25:39.690Z,102070.31
2023-02-02T18:28:08.970Z,102066.97
2023-02-02T18:30:39.088Z,102060.84
2023-02-02T18:33:08.601Z,102057.50
2023-02-02T18:35:37.348Z,102057.84
2023-02-02T18:38:05.237Z,102057.00
2023-02-02T18:40:33.229Z,102061.78
2023-02-02T18:43:01.529Z,102058.22
2023-02-02T18:45:31.098Z,102064.50
2023-02-02T18:47:59.006Z,102069.09
2023-02-02T18:50:26.860Z,102060.09
2023-02-02T18:52:56.703Z,102063.00
2023-02-02T18:55:25.717Z,102053.81
2023-02-02T18:57:53.819Z,102050.44
2023-02-02T19:00:22.532Z,102051.28
2023-02-02T19:02:51.827Z,102046.84
2023-02-02T19:05:37.345Z,102049.75
2023-02-02T19:08:05.906Z,102057.25
2023-02-02T19:10:33.919Z,102047.41
2023-02-02T19:13:07.061Z,102045.72
2023-02-02T19:15:35.493Z,102044.69
2023-02-02T19:18:08.737Z,102044.69
2023-02-02T19:20:36.631Z,102046.75
2023-02-02T19:23:08.291Z,102042.34
2023-02-02T19:25:36.856Z,102045.06
2023-02-02T19:28:09.721Z,102044.38
2023-02-02T19:30:37.748Z,102046.25
2023-02-02T19:33:11.805Z,102052.53
2023-02-02T19:35:40.173Z,102050.88
2023-02-02T19:38:11.003Z,102048.97
2023-02-02T19:40:38.908Z,102046.47
2023-02-02T19:43:18.077Z,102057.13
2023-02-02T19:45:46.024Z,102058.16
2023-02-02T19:48:16.555Z,102055.44
2023-02-02T19:50:44.600Z,102059.03
2023-02-02T19:53:17.473Z,102057.31
2023-02-02T19:55:45.710Z,102058.34
2023-02-02T19:58:16.649Z,102057.31
2023-02-02T20:00:44.896Z,102056.47
2023-02-02T20:03:13.649Z,102057.31
2023-02-02T20:05:44.878Z,102061.91
2023-02-02T20:08:20.394Z,102056.47
2023-02-02T20:10:48.422Z,102058.16
2023-02-02T20:13:17.639Z,102052.75
2023-02-02T20:15:46.068Z,102051.88
2023-02-02T20:18:17.162Z,102050.03
2023-02-02T20:20:47.759Z,102042.72
2023-02-02T20:23:25.531Z,102041.88
2023-02-02T20:25:53.407Z,102049.34
2023-02-02T20:28:34.956Z,102047.66
2023-02-02T20:31:03.956Z,101982.47
2023-02-02T20:33:33.113Z,102039.22
2023-02-02T20:36:03.177Z,102045.78
2023-02-02T20:38:37.035Z,102049.34
2023-02-02T20:41:06.367Z,102019.78
2023-02-02T20:43:35.731Z,102048.50
2023-02-02T20:46:04.186Z,102045.97
2023-02-02T20:48:32.107Z,102049.34
2023-02-02T20:51:00.013Z,102039.50
2023-02-02T20:53:29.258Z,102045.63
2023-02-02T20:55:59.885Z,102042.06
2023-02-02T20:58:27.841Z,102040.19
2023-02-02T21:00:55.912Z,102054.78
2023-02-02T21:03:23.880Z,102052.75
2023-02-02T21:05:52.172Z,102061.72
2023-02-02T21:08:20.063Z,102068.19
2023-02-02T21:10:49.487Z,102067.34
2023-02-02T21:13:17.420Z,102070.06
2023-02-02T21:15:45.741Z,102067.34
2023-02-02T21:18:13.666Z,102071.75
2023-02-02T21:20:41.525Z,102078.03
2023-02-02T21:23:10.205Z,102088.88
2023-02-02T21:25:38.384Z,102075.66
2023-02-02T21:28:07.668Z,102081.56
2023-02-02T21:30:35.628Z,102081.94
2023-02-02T21:33:03.618Z,102093.66
2023-02-02T21:35:31.897Z,102098.69
2023-02-02T21:37:59.802Z,102108.72
2023-02-02T21:40:29.851Z,102098.69
2023-02-02T21:42:59.580Z,102109.56
2023-02-02T21:45:35.784Z,102120.44
2023-02-02T21:48:04.364Z,102113.13
2023-02-02T21:50:33.571Z,102108.72
2023-02-02T21:53:17.980Z,102104.34
2023-02-02T21:55:46.301Z,102100.78
2023-02-02T21:58:18.974Z,102107.91
2023-02-02T22:00:48.332Z,102102.47
2023-02-02T22:03:34.848Z,102104.34
2023-02-02T22:06:26.994Z,102101.41
2023-02-02T22:08:55.986Z,102102.47
2023-02-02T22:11:29.265Z,102104.50
2023-02-02T22:13:58.603Z,102107.91
2023-02-02T22:16:27.847Z,102100.78
2023-02-02T22:18:55.736Z,102090.94
2023-02-02T22:21:23.669Z,102075.38
2023-02-02T22:23:51.512Z,102089.41
2023-02-02T22:26:30.733Z,102081.94
2023-02-02T22:28:58.636Z,102082.97
2023-02-02T22:31:28.024Z,102091.28
2023-02-02T22:33:55.966Z,102095.22
2023-02-02T22:36:24.401Z,102101.50
2023-02-02T22:38:52.341Z,102102.97
2023-02-02T22:41:20.296Z,102093.81
2023-02-02T22:43:48.198Z,102085.66
2023-02-02T22:46:16.531Z,102082.78
2023-02-02T22:48:45.843Z,102083.63
2023-02-02T22:51:13.713Z,102086.34
2023-02-02T22:53:41.622Z,102095.34
2023-02-02T22:56:09.795Z,102088.22
2023-02-02T22:58:37.727Z,102078.19
2023-02-02T23:01:06.052Z,102079.91
2023-02-02T23:03:33.937Z,102094.31
2023-02-02T23:06:03.647Z,102080.91
2023-02-02T23:08:31.571Z,102075.50
2023-02-02T23:10:59.511Z,102083.63
2023-02-02T23:13:27.460Z,102091.78
2023-02-02T23:15:56.743Z,102075.50
2023-02-02T23:18:24.685Z,102071.06
2023-02-02T23:20:52.567Z,102065.63
2023-02-02T23:23:22.334Z,102072.94
2023-02-02T23:25:50.749Z,102074.81
2023-02-02T23:28:18.686Z,102072.09
2023-02-02T23:30:46.605Z,102068.53
2023-02-02T23:33:14.625Z,102079.22
2023-02-02T23:35:42.813Z,102069.38
2023-02-02T23:38:10.679Z,102072.09
2023-02-02T23:40:39.975Z,102075.66
2023-02-02T23:43:07.878Z,102072.94
2023-02-02T23:45:36.128Z,102073.13
2023-02-02T23:48:04.040Z,102066.66
2023-02-02T23:50:31.922Z,102062.25
2023-02-02T23:52:59.776Z,102049.53
2023-02-02T23:55:28.061Z,102040.53
2023-02-02T23:57:57.391Z,102048.69
